Time;durP1;ratioP1;P1;durP2;ratioP2;P2;SDS_P1;SDS_P2;PMS_P1;PMS_P2;Temp;Humidity;BMP_temperature;BMP_pressure;BME280_temperature;BME280_humidity;BME280_pressure;Samples;Min_cycle;Max_cycle;Signal;HPM_P1;HPM_P2
2022/05/29 06:26:13;;;;;;;;;0.00;0.00;;;;;15.11;91.78;100473.81;6408457;22;46141;-91
2022/05/29 06:28:40;;;;;;;;;0.00;0.00;;;;;15.16;91.55;100472.16;6387882;22;45367;-92
2022/05/29 06:31:08;;;;;;;;;0.67;0.67;;;;;15.19;91.30;100461.66;6418860;22;44751;-93
2022/05/29 06:33:34;;;;;;;;;1.00;0.00;;;;;15.29;91.15;100475.97;6419050;22;46604;-94
2022/05/29 06:36:12;;;;;;;;;1.00;1.00;;;;;15.35;90.58;100477.84;6387034;22;45225;-93
2022/05/29 06:38:38;;;;;;;;;0.00;0.00;;;;;15.38;90.25;100475.28;6418058;22;45355;-93
2022/05/29 06:41:06;;;;;;;;;1.00;1.00;;;;;15.41;90.04;100486.81;6417353;22;45331;-92
2022/05/29 06:43:32;;;;;;;;;1.00;1.00;;;;;15.55;90.27;100486.22;6416900;22;45102;-92
2022/05/29 06:45:59;;;;;;;;;1.33;0.33;;;;;15.62;90.15;100482.81;6421384;22;45186;-92
2022/05/29 06:48:24;;;;;;;;;0.67;0.67;;;;;15.77;90.00;100486.63;6390228;22;45407;-92
2022/05/29 06:50:50;;;;;;;;;0.00;0.00;;;;;15.85;89.56;100492.97;6384016;22;45452;-93
2022/05/29 06:53:15;;;;;;;;;1.00;1.00;;;;;15.93;89.26;100490.47;6384583;22;46503;-93
2022/05/29 06:55:40;;;;;;;;;1.67;0.00;;;;;15.94;88.74;100502.84;6384289;22;45195;-93
2022/05/29 06:58:06;;;;;;;;;0.33;0.33;;;;;16.02;88.93;100499.47;6385253;22;44823;-93
2022/05/29 07:08:44;;;;;;;;;2.00;2.00;;;;;16.10;87.44;100508.47;6412832;22;44654;-93
2022/05/29 07:11:19;;;;;;;;;2.00;0.00;;;;;16.18;87.14;100506.84;6385034;22;44898;-94
2022/05/29 07:13:45;;;;;;;;;0.67;0.00;;;;;16.25;86.70;100521.09;6382240;22;47116;-93
2022/05/29 07:16:11;;;;;;;;;1.00;1.00;;;;;16.37;86.14;100519.53;6384763;22;45596;-92
2022/05/29 07:18:36;;;;;;;;;2.00;0.00;;;;;16.46;85.36;100526.75;6413882;22;45355;-92
2022/05/29 07:21:04;;;;;;;;;0.00;0.00;;;;;16.56;85.49;100541.03;6383523;22;45300;-92
2022/05/29 07:23:30;;;;;;;;;1.00;1.00;;;;;16.63;85.28;100538.53;6414184;22;45741;-91
2022/05/29 07:25:56;;;;;;;;;0.33;0.00;;;;;16.73;84.63;100542.22;6414663;22;45593;-92
2022/05/29 07:28:25;;;;;;;;;0.00;0.00;;;;;16.85;84.01;100565.38;6386872;22;45266;-94
2022/05/29 07:30:52;;;;;;;;;0.00;0.00;;;;;17.01;83.84;100565.63;6417864;22;45501;-92
2022/05/29 07:33:18;;;;;;;;;0.33;0.33;;;;;17.16;83.84;100554.38;6389003;22;48308;-93
2022/05/29 07:35:43;;;;;;;;;1.67;1.00;;;;;17.13;83.33;100564.94;6413280;22;44669;-90
2022/05/29 07:38:09;;;;;;;;;0.50;0.50;;;;;17.01;83.26;100578.88;6383369;22;44647;-93
2022/05/29 07:40:35;;;;;;;;;1.00;1.00;;;;;16.83;83.05;100577.72;6384358;22;44736;-93
2022/05/29 07:43:18;;;;;;;;;1.67;0.00;;;;;16.64;83.33;100565.91;6414469;22;45298;-91
2022/05/29 07:45:52;;;;;;;;;2.33;1.00;;;;;16.44;83.43;100566.44;6383150;22;45324;-90
2022/05/29 07:48:20;;;;;;;;;0.33;0.33;;;;;16.27;83.29;100558.19;6382373;22;44724;-91
2022/05/29 07:50:45;;;;;;;;;0.33;0.33;;;;;16.20;83.67;100557.19;6384150;22;45631;-86
2022/05/29 07:53:11;;;;;;;;;0.33;0.33;;;;;16.17;83.61;100550.09;6386866;22;46983;-88
2022/05/29 07:55:38;;;;;;;;;1.00;1.00;;;;;16.24;83.64;100551.09;6399749;22;45743;-87
2022/05/29 07:58:07;;;;;;;;;0.33;0.33;;;;;16.38;83.32;100566.34;6399791;22;45247;-93
2022/05/29 08:00:34;;;;;;;;;2.00;1.00;;;;;16.58;83.37;100563.16;6401033;22;45294;-93
2022/05/29 08:03:00;;;;;;;;;2.00;0.67;;;;;16.89;83.05;100560.13;6400055;22;46543;-93
2022/05/29 08:05:26;;;;;;;;;0.67;0.67;;;;;17.30;83.29;100551.94;6374210;22;45325;-93
2022/05/29 08:07:52;;;;;;;;;1.00;1.00;;;;;17.69;83.79;100540.97;6401551;22;45264;-92
2022/05/29 08:10:20;;;;;;;;;0.00;0.00;;;;;17.96;83.34;100551.91;6374006;22;45260;-93
2022/05/29 08:12:47;;;;;;;;;1.00;1.00;;;;;18.11;83.09;100566.22;6403608;22;46467;-94
2022/05/29 08:15:12;;;;;;;;;1.67;0.00;;;;;18.19;82.15;100572.50;6378058;22;45323;-95
2022/05/29 08:17:39;;;;;;;;;2.00;0.67;;;;;18.09;81.50;100588.31;6381107;22;45578;-92
2022/05/29 08:20:06;;;;;;;;;1.00;1.00;;;;;17.93;80.48;100612.94;6377075;22;45349;-92
2022/05/29 08:22:31;;;;;;;;;0.00;0.00;;;;;17.68;79.85;100649.78;6369028;22;46465;-94
2022/05/29 08:30:40;;;;;;;;;2.00;0.00;;;;;16.95;79.99;100622.13;6400013;22;45253;-94
2022/05/29 08:33:18;;;;;;;;;1.00;1.00;;;;;16.78;79.29;100627.09;6399308;22;45303;-94
2022/05/29 08:35:46;;;;;;;;;0.33;0.33;;;;;16.72;79.83;100622.59;6370082;22;45357;-95
2022/05/29 08:38:14;;;;;;;;;0.00;0.00;;;;;16.94;80.69;100591.16;6370032;22;45270;-94
2022/05/29 08:40:43;;;;;;;;;1.67;1.67;;;;;17.36;81.04;100572.38;6370798;22;45286;-95
2022/05/29 08:43:25;;;;;;;;;1.00;1.00;;;;;17.78;80.58;100576.47;6371598;22;47337;-93
2022/05/29 08:45:51;;;;;;;;;0.00;0.00;;;;;17.89;79.99;100604.03;6399908;22;45572;-95
2022/05/29 08:48:23;;;;;;;;;1.00;1.00;;;;;17.82;79.49;100624.31;6370335;22;45271;-94
2022/05/29 08:51:07;;;;;;;;;0.00;0.00;;;;;17.99;79.60;100620.94;6399071;22;45577;-92
2022/05/29 08:53:39;;;;;;;;;0.00;0.00;;;;;18.25;79.43;100612.44;6370233;22;47081;-93
2022/05/29 08:56:32;;;;;;;;;2.00;0.00;;;;;18.46;79.28;100624.19;6399547;22;45213;-95
2022/05/29 08:59:08;;;;;;;;;0.00;0.00;;;;;18.56;78.91;100632.25;6371590;22;45419;-94
2022/05/29 09:01:41;;;;;;;;;1.33;0.00;;;;;18.57;77.90;100676.56;6400425;22;45286;-95
2022/05/29 09:04:15;;;;;;;;;0.00;0.00;;;;;18.49;77.65;100660.53;6374572;22;46143;-94
2022/05/29 09:06:47;;;;;;;;;1.00;1.00;;;;;18.40;77.27;100685.25;6407760;22;45375;-94
2022/05/29 09:09:21;;;;;;;;;0.33;0.33;;;;;18.27;76.92;100676.25;6382769;22;45351;-94
2022/05/29 09:11:52;;;;;;;;;0.67;0.67;;;;;18.22;77.14;100677.94;6407444;22;45685;-94
2022/05/29 09:14:37;;;;;;;;;1.00;1.00;;;;;18.18;77.06;100677.88;6412636;22;45577;-96
2022/05/29 09:17:06;;;;;;;;;0.33;0.33;;;;;18.22;77.13;100668.19;6405342;22;45296;-95
2022/05/29 09:19:56;;;;;;;;;1.00;1.00;;;;;18.25;77.40;100662.03;6406650;22;45287;-96
2022/05/29 09:22:28;;;;;;;;;1.33;1.00;;;;;18.25;77.46;100662.03;6405550;22;45374;-95
2022/05/29 09:25:05;;;;;;;;;1.33;1.33;;;;;18.22;77.39;100654.03;6405303;22;46416;-95
2022/05/29 09:27:32;;;;;;;;;1.00;1.00;;;;;18.19;77.05;100652.22;6377399;22;45648;-95
2022/05/29 09:29:58;;;;;;;;;1.67;1.00;;;;;18.19;77.35;100646.91;6406286;22;45316;-94
2022/05/29 09:32:28;;;;;;;;;2.00;1.33;;;;;18.23;77.41;100650.50;6406143;22;45351;-95
2022/05/29 09:35:04;;;;;;;;;0.67;0.67;;;;;18.25;77.56;100628.38;6407602;22;45337;-95
2022/05/29 09:37:35;;;;;;;;;1.00;1.00;;;;;18.45;77.75;100629.50;6408275;22;45299;-95
2022/05/29 09:40:02;;;;;;;;;1.00;1.00;;;;;18.67;78.25;100611.09;6408600;22;45161;-95
2022/05/29 09:42:37;;;;;;;;;1.00;0.33;;;;;18.83;77.00;100644.94;6370862;22;45359;-96
2022/05/29 09:45:15;;;;;;;;;1.00;1.00;;;;;18.92;77.08;100654.75;6371300;22;46944;-96
2022/05/29 09:50:38;;;;;;;;;1.00;1.00;;;;;19.19;75.31;100650.59;6404072;22;44711;-96
2022/05/29 09:53:25;;;;;;;;;2.00;2.00;;;;;19.63;74.53;100741.41;6409846;22;44710;-96
2022/05/29 09:56:04;;;;;;;;;2.00;0.33;;;;;21.29;76.78;100770.59;6379542;22;46679;-95
2022/05/29 09:58:45;;;;;;;;;0.67;0.67;;;;;23.47;76.00;100876.13;6384348;22;44890;-94
2022/05/29 10:01:11;;;;;;;;;0.67;0.67;;;;;25.49;76.74;100945.69;6410227;22;45333;-96
2022/05/29 10:03:52;;;;;;;;;0.67;0.67;;;;;27.28;74.38;101080.06;6379908;22;45420;-95
2022/05/29 10:06:26;;;;;;;;;3.33;1.00;;;;;27.38;71.12;101195.75;6408462;22;45197;-95
2022/05/29 10:09:01;;;;;;;;;1.00;1.00;;;;;26.65;67.92;101247.16;6378703;22;45453;-95
2022/05/29 10:11:30;;;;;;;;;1.00;1.00;;;;;25.62;66.55;101268.91;6381134;22;45357;-96
2022/05/29 10:13:55;;;;;;;;;3.00;3.00;;;;;24.61;65.23;101274.09;6380150;22;44847;-96
2022/05/29 10:16:30;;;;;;;;;3.00;3.00;;;;;23.63;65.32;101275.28;6410751;22;44808;-96
2022/05/29 10:18:55;;;;;;;;;2.00;2.00;;;;;22.86;66.03;101268.03;6381325;22;45700;-96
2022/05/29 10:21:24;;;;;;;;;1.00;1.00;;;;;22.24;66.21;101257.97;6374526;22;45572;-95
2022/05/29 10:24:08;;;;;;;;;2.67;2.33;;;;;21.67;67.05;101238.06;6376714;22;45487;-94
2022/05/29 10:26:36;;;;;;;;;3.00;1.67;;;;;21.17;67.20;101234.97;6370379;22;46316;-95
2022/05/29 10:29:27;;;;;;;;;3.67;2.00;;;;;20.80;68.07;101209.69;6371611;22;45221;-95
2022/05/29 10:31:53;;;;;;;;;0.00;0.00;;;;;20.54;68.62;101183.66;6366752;22;45234;-92
2022/05/29 10:34:27;;;;;;;;;1.67;1.00;;;;;20.29;68.77;101167.38;6370932;22;45338;-91
2022/05/29 10:36:53;;;;;;;;;2.00;1.00;;;;;20.04;69.69;101133.31;6372076;22;45350;-92
2022/05/29 10:39:23;;;;;;;;;2.67;2.67;;;;;19.85;69.13;101154.41;6367252;22;45264;-93
2022/05/29 10:41:50;;;;;;;;;3.00;2.00;;;;;19.60;69.31;101156.72;6381587;22;44716;-91
2022/05/29 10:44:37;;;;;;;;;1.00;1.00;;;;;19.47;68.75;101165.41;6394243;22;44859;-91
2022/05/29 10:52:57;;;;;;;;;1.00;1.00;;;;;19.54;69.11;101153.97;6377200;22;44816;-93
2022/05/29 11:13:27;;;;;;;;;2.00;2.00;;;;;20.64;70.07;101131.31;6408847;22;45545;-91
2022/05/29 12:05:38;;;;;;;;;1.33;1.33;;;;;33.57;53.08;101232.00;6395193;22;45065;-91
2022/05/29 12:21:01;;;;;;;;;2.33;1.33;;;;;28.52;50.85;101227.69;6456763;22;45412;-88
2022/05/29 12:23:26;;;;;;;;;0.67;0.67;;;;;29.35;51.94;101217.59;6393898;22;45300;-88
2022/05/29 12:33:37;;;;;;;;;3.67;1.00;;;;;37.64;48.79;101202.53;6488517;22;45198;-87
2022/05/29 12:36:24;;;;;;;;;0.33;0.33;;;;;35.94;46.62;101211.44;6493470;22;44626;-89
2022/05/29 12:49:47;;;;;;;;;1.00;1.00;;;;;28.29;48.95;101223.66;6405167;22;46486;-89
2022/05/29 12:52:14;;;;;;;;;1.33;1.33;;;;;27.55;50.00;101217.88;6399002;22;47154;-90
2022/05/29 12:55:13;;;;;;;;;2.00;2.00;;;;;26.86;49.56;101212.72;6427458;22;44690;-86
2022/05/29 12:57:53;;;;;;;;;1.00;1.00;;;;;25.99;49.83;101216.59;6398113;22;44763;-93
2022/05/29 13:03:19;;;;;;;;;1.00;1.00;;;;;25.00;51.17;101206.75;6344683;22;45218;-91
2022/05/29 13:05:45;;;;;;;;;1.00;1.00;;;;;25.00;51.95;101212.13;6341080;22;45609;-91
2022/05/29 13:08:19;;;;;;;;;2.00;1.33;;;;;26.66;52.92;101190.59;6317479;22;45689;-92
2022/05/29 13:10:50;;;;;;;;;2.33;2.00;;;;;27.12;51.89;101189.88;6316933;22;45376;-90
2022/05/29 13:13:30;;;;;;;;;3.00;1.67;;;;;26.75;48.72;101196.78;6337167;22;48615;-91
2022/05/29 13:16:18;;;;;;;;;1.00;1.00;;;;;25.95;50.36;101196.00;6345099;22;45391;-90
2022/05/29 13:19:21;;;;;;;;;1.00;0.00;;;;;25.27;50.96;101186.84;6315503;22;44718;-91
2022/05/29 13:22:05;;;;;;;;;1.00;1.00;;;;;24.67;51.00;101185.50;6346099;22;45332;-91
2022/05/29 13:24:34;;;;;;;;;1.00;1.00;;;;;24.23;51.31;101195.56;6342050;22;45371;-91
2022/05/29 13:27:08;;;;;;;;;1.00;1.00;;;;;23.85;52.12;101187.66;6339710;22;45269;-91
2022/05/29 13:29:45;;;;;;;;;1.00;1.00;;;;;23.51;52.48;101182.38;6339070;22;45317;-92
2022/05/29 13:32:13;;;;;;;;;1.00;1.00;;;;;23.29;53.26;101177.94;6311111;22;45242;-91
2022/05/29 13:34:39;;;;;;;;;2.00;2.00;;;;;23.14;53.62;101186.00;6338151;22;45594;-92
2022/05/29 13:37:21;;;;;;;;;1.67;1.67;;;;;22.96;53.32;101171.72;6339576;22;45236;-92
2022/05/29 13:39:57;;;;;;;;;0.33;0.33;;;;;22.84;54.21;101157.41;6349930;22;45174;-90
2022/05/29 13:42:23;;;;;;;;;1.00;1.00;;;;;22.85;54.93;101148.50;6334013;22;44720;-90
2022/05/29 13:44:48;;;;;;;;;0.33;0.33;;;;;22.92;54.68;101144.03;6335581;22;47395;-91
2022/05/29 13:47:23;;;;;;;;;1.00;1.00;;;;;23.11;55.29;101138.69;6338110;22;45472;-92
2022/05/29 13:49:58;;;;;;;;;1.00;1.00;;;;;23.37;55.00;101135.09;6327855;22;45199;-92
2022/05/29 13:52:31;;;;;;;;;3.00;2.00;;;;;23.64;55.35;101124.31;6385428;22;46269;-92
2022/05/29 13:55:08;;;;;;;;;1.33;1.33;;;;;24.59;55.48;101124.72;6395045;22;46318;-92
2022/05/29 14:06:24;;;;;;;;;1.00;1.00;;;;;27.46;51.54;101134.50;6397610;22;45366;-92
2022/05/29 14:09:08;;;;;;;;;1.00;1.00;;;;;27.12;51.60;101138.69;6397724;22;45363;-91
2022/05/29 14:11:56;;;;;;;;;2.00;1.00;;;;;27.14;52.12;101136.00;6395408;22;45250;-92
2022/05/29 14:14:34;;;;;;;;;1.00;1.00;;;;;26.91;52.02;101126.47;6397590;22;45393;-92
2022/05/29 14:17:26;;;;;;;;;2.00;2.00;;;;;26.34;51.43;101130.94;6396607;22;47231;-92
2022/05/29 14:20:13;;;;;;;;;1.00;1.00;;;;;25.75;51.64;101138.00;6397643;22;45286;-91
2022/05/29 14:23:26;;;;;;;;;2.00;1.00;;;;;25.06;51.76;101129.75;6395620;22;45378;-95
2022/05/29 14:26:06;;;;;;;;;1.67;1.67;;;;;24.59;52.27;101128.31;6329920;22;45435;-93
2022/05/29 14:28:46;;;;;;;;;1.00;1.00;;;;;24.26;52.45;101122.22;6322638;22;47485;-91
2022/05/29 14:31:30;;;;;;;;;0.00;0.00;;;;;24.05;52.73;101113.41;6304050;22;45640;-92
2022/05/29 14:34:29;;;;;;;;;2.00;1.00;;;;;23.91;53.44;101113.50;6331408;22;45437;-91
2022/05/29 14:37:12;;;;;;;;;4.67;3.67;;;;;24.19;53.99;101107.97;6308957;22;45490;-93
2022/05/29 14:39:40;;;;;;;;;3.00;1.00;;;;;24.95;54.91;101108.31;6331787;22;45912;-93
2022/05/29 14:42:18;;;;;;;;;1.00;0.00;;;;;25.31;53.82;101095.47;6331129;22;45272;-93
2022/05/29 14:44:46;;;;;;;;;1.67;1.67;;;;;25.55;54.00;101093.41;6331975;22;45551;-93
2022/05/29 14:47:32;;;;;;;;;3.33;2.00;;;;;25.66;54.05;101085.22;6329182;22;45623;-92
2022/05/29 14:50:08;;;;;;;;;0.33;0.33;;;;;25.66;53.33;101077.16;6267980;22;46138;-91
2022/05/29 14:52:55;;;;;;;;;1.67;1.67;;;;;25.59;53.79;101072.75;6267105;22;45471;-92
2022/05/29 14:55:26;;;;;;;;;1.00;1.00;;;;;25.42;54.30;101079.22;6297307;22;44768;-91
2022/05/29 14:57:59;;;;;;;;;1.33;1.00;;;;;25.03;53.83;101068.91;6243577;22;45255;-94
2022/05/29 15:00:27;;;;;;;;;1.67;1.67;;;;;24.61;53.28;101071.97;6267956;22;47246;-92
2022/05/29 15:02:55;;;;;;;;;1.67;1.33;;;;;24.17;53.74;101078.47;6300081;22;45352;-90
2022/05/29 15:05:21;;;;;;;;;1.00;1.00;;;;;23.87;54.07;101070.63;6303619;22;45397;-91
2022/05/29 15:11:02;;;;;;;;;0.00;0.00;;;;;23.72;53.69;101065.34;6331675;22;45722;-91
2022/05/29 15:13:56;;;;;;;;;1.00;1.00;;;;;23.66;54.04;101045.72;6302780;22;45390;-92
2022/05/29 15:16:30;;;;;;;;;0.00;0.00;;;;;23.60;53.70;101050.22;6304997;22;45329;-90
2022/05/29 15:19:10;;;;;;;;;1.00;1.00;;;;;23.48;53.85;101041.28;6329724;22;45563;-93
2022/05/29 15:24:29;;;;;;;;;1.00;1.00;;;;;23.19;54.86;101028.91;6330669;22;45475;-91
2022/05/29 15:27:01;;;;;;;;;0.00;0.00;;;;;23.02;54.79;101035.19;6345016;22;45204;-92
2022/05/29 15:29:51;;;;;;;;;0.67;0.67;;;;;22.89;55.08;101020.94;6365154;22;45371;-93
2022/05/29 15:32:45;;;;;;;;;1.00;1.00;;;;;22.83;55.45;101026.31;6365506;22;46974;-93
2022/05/29 15:35:36;;;;;;;;;1.00;1.00;;;;;22.64;55.69;101028.97;6354511;22;45570;-91
2022/05/29 15:38:07;;;;;;;;;1.00;1.00;;;;;22.36;55.79;101020.94;6367455;22;45256;-94
2022/05/29 15:40:53;;;;;;;;;0.33;0.00;;;;;22.00;55.50;101016.44;6366357;22;45255;-94
2022/05/29 15:43:21;;;;;;;;;0.67;0.00;;;;;21.69;55.05;101019.00;6366906;22;45581;-94
2022/05/29 15:46:21;;;;;;;;;1.00;1.00;;;;;21.42;55.05;101024.25;6365544;22;45439;-96
2022/05/29 15:48:46;;;;;;;;;1.67;1.67;;;;;21.25;55.57;101019.72;6367005;22;45363;-94
2022/05/29 15:51:29;;;;;;;;;1.33;1.00;;;;;21.09;56.04;101013.41;6369102;22;45170;-95
2022/05/29 15:54:19;;;;;;;;;1.67;1.67;;;;;20.99;57.02;101017.75;6400283;22;45533;-96
2022/05/29 15:57:02;;;;;;;;;3.00;2.33;;;;;20.90;57.30;101012.38;6366640;22;45907;-91
2022/05/29 15:59:42;;;;;;;;;2.00;1.00;;;;;20.93;57.62;100999.94;6368724;22;45404;-96
2022/05/29 16:02:11;;;;;;;;;2.00;2.00;;;;;20.98;58.32;100991.94;6340672;22;45387;-96
2022/05/29 16:04:39;;;;;;;;;1.00;1.00;;;;;20.99;58.54;100989.31;6366668;22;45226;-95
2022/05/29 16:07:06;;;;;;;;;1.00;1.00;;;;;20.96;58.56;100978.63;6368603;22;45358;-90
2022/05/29 16:09:57;;;;;;;;;3.33;1.67;;;;;20.98;58.57;100986.63;6371445;22;45327;-96
2022/05/29 16:12:23;;;;;;;;;3.00;1.00;;;;;20.95;58.75;100976.81;6341015;22;45419;-95
2022/05/29 16:14:52;;;;;;;;;2.00;2.00;;;;;20.89;58.79;100984.81;6347238;22;46086;-96
2022/05/29 16:17:37;;;;;;;;;2.00;2.00;;;;;20.64;59.02;100965.97;6359464;22;44680;-96
2022/05/29 16:20:02;;;;;;;;;3.00;2.00;;;;;20.60;59.19;100977.50;6371516;22;45371;-96
2022/05/29 16:22:34;;;;;;;;;2.00;2.00;;;;;20.48;59.52;100972.97;6378040;22;45311;-95
2022/05/29 16:25:07;;;;;;;;;3.00;3.00;;;;;20.38;59.60;100972.91;6377571;22;46251;-94
2022/05/29 16:27:53;;;;;;;;;2.00;2.00;;;;;20.18;59.84;100954.94;6369855;22;45146;-96
2022/05/29 16:30:29;;;;;;;;;3.00;1.00;;;;;20.09;59.85;100970.84;6375967;22;45257;-90
2022/05/29 16:33:11;;;;;;;;;1.00;1.00;;;;;20.01;59.71;100968.09;6375292;22;45457;-96
2022/05/29 16:35:57;;;;;;;;;3.00;2.00;;;;;19.95;60.05;100952.03;6410011;22;46260;-96
2022/05/29 16:50:31;;;;;;;;;1.00;1.00;;;;;19.61;60.54;100936.66;6377422;22;45300;-96
2022/05/29 16:53:15;;;;;;;;;2.00;2.00;;;;;19.65;61.13;100933.13;6374093;22;45344;-96
2022/05/29 16:55:48;;;;;;;;;2.67;2.67;;;;;19.68;61.45;100926.94;6399873;22;45308;-94
2022/05/29 16:58:24;;;;;;;;;2.00;2.00;;;;;19.64;60.84;100923.34;6365360;22;46290;-96
2022/05/29 17:01:07;;;;;;;;;1.00;1.00;;;;;19.60;61.73;100914.44;6369055;22;45303;-95
2022/05/29 17:03:50;;;;;;;;;2.67;2.00;;;;;19.57;61.75;100919.72;6393576;22;45463;-96
2022/05/29 17:06:23;;;;;;;;;3.33;2.33;;;;;19.54;61.92;100915.25;6367264;22;45256;-96
2022/05/29 17:08:58;;;;;;;;;1.67;1.67;;;;;19.54;62.34;100915.25;6375461;22;46573;-96
2022/05/29 17:11:24;;;;;;;;;1.00;1.00;;;;;19.54;62.79;100906.38;6374699;22;45134;-96
2022/05/29 17:13:51;;;;;;;;;2.00;2.00;;;;;19.59;62.25;100920.63;6373192;22;45182;-95
2022/05/29 17:16:18;;;;;;;;;3.00;3.00;;;;;19.56;62.28;100920.59;6372624;22;45400;-95
2022/05/29 17:18:45;;;;;;;;;3.67;2.00;;;;;19.53;62.42;100920.59;6370649;22;45385;-93
2022/05/29 17:21:33;;;;;;;;;2.00;2.00;;;;;19.40;61.85;100924.88;6366446;22;45261;-96
2022/05/29 17:24:14;;;;;;;;;4.00;2.00;;;;;19.35;62.37;100916.84;6369026;22;45158;-96
2022/05/29 17:27:03;;;;;;;;;2.00;2.00;;;;;19.29;62.50;100916.75;6367278;22;45438;-95
2022/05/29 17:29:57;;;;;;;;;2.00;2.00;;;;;19.16;62.20;100919.25;6364366;22;46101;-96
2022/05/29 17:32:41;;;;;;;;;1.33;1.33;;;;;19.05;62.13;100920.84;6367832;22;45192;-95
2022/05/29 17:35:14;;;;;;;;;3.67;2.00;;;;;18.94;62.20;100916.28;6370574;22;45113;-96
2022/05/29 17:37:55;;;;;;;;;2.33;2.33;;;;;18.80;62.43;100905.47;6362838;22;45814;-94
2022/05/29 17:40:25;;;;;;;;;3.00;2.00;;;;;18.67;62.80;100900.84;6367435;22;45909;-92
2022/05/29 17:42:51;;;;;;;;;2.00;2.00;;;;;18.53;63.18;100896.22;6389598;22;45268;-92
2022/05/29 17:45:17;;;;;;;;;0.67;0.33;;;;;18.48;63.82;100881.97;6365262;22;45284;-96
2022/05/29 17:48:24;;;;;;;;;3.33;2.00;;;;;18.42;64.13;100872.19;6368212;22;45303;-95
2022/05/29 17:50:50;;;;;;;;;2.00;2.00;;;;;18.34;64.22;100866.75;6348223;22;46977;-95
2022/05/29 17:53:36;;;;;;;;;3.67;2.00;;;;;18.30;64.81;100854.25;6367737;22;50499;-94
2022/05/29 17:56:02;;;;;;;;;3.00;3.00;;;;;18.21;65.25;100836.44;6364009;22;45600;-95
2022/05/29 17:58:27;;;;;;;;;3.00;3.00;;;;;18.19;65.44;100840.81;6376826;22;45427;-93
2022/05/29 18:00:54;;;;;;;;;3.33;2.67;;;;;18.13;65.23;100848.66;6379271;22;45227;-96
2022/05/29 18:03:25;;;;;;;;;4.00;2.67;;;;;18.15;65.04;100847.81;6374718;22;45320;-95
2022/05/29 18:05:51;;;;;;;;;2.00;2.00;;;;;18.19;65.05;100846.13;6374080;22;45274;-94
2022/05/29 18:08:18;;;;;;;;;3.00;3.00;;;;;18.21;65.11;100852.38;6375035;22;45483;-93
2022/05/29 18:10:49;;;;;;;;;2.33;2.00;;;;;18.23;65.27;100852.38;6366014;22;45593;-91
2022/05/29 18:13:15;;;;;;;;;2.33;2.00;;;;;18.24;65.39;100848.88;6367148;22;45261;-94
2022/05/29 18:15:40;;;;;;;;;1.00;1.00;;;;;18.23;65.92;100839.09;6365961;22;45356;-90
2022/05/29 18:18:09;;;;;;;;;3.00;3.00;;;;;18.15;65.81;100834.53;6390281;22;45336;-90
2022/05/29 18:23:09;;;;;;;;;2.00;1.33;;;;;18.01;66.96;100789.19;6369751;22;45236;-91
2022/05/29 18:25:35;;;;;;;;;2.00;2.00;;;;;18.08;66.62;100806.09;6372642;22;45280;-92
2022/05/29 18:28:00;;;;;;;;;4.67;4.67;;;;;18.06;66.69;100790.16;6368043;22;45662;-92
2022/05/29 18:30:26;;;;;;;;;2.00;2.00;;;;;18.02;66.69;100798.94;6393696;22;46898;-91
2022/05/29 18:32:51;;;;;;;;;4.67;2.00;;;;;18.00;66.73;100803.34;6369561;22;45194;-92
2022/05/29 18:35:18;;;;;;;;;3.00;2.00;;;;;17.95;67.23;100782.03;6372769;22;45329;-92
2022/05/29 18:37:48;;;;;;;;;1.00;1.00;;;;;17.87;67.13;100779.25;6374725;22;45246;-92
2022/05/29 18:40:15;;;;;;;;;2.00;2.00;;;;;17.84;67.06;100781.84;6356458;22;46400;-91
2022/05/29 18:42:41;;;;;;;;;2.33;2.33;;;;;17.78;67.08;100788.84;6380829;22;45237;-91
2022/05/29 18:45:08;;;;;;;;;1.00;1.00;;;;;17.70;67.48;100762.16;6379570;22;44632;-91
2022/05/29 18:47:33;;;;;;;;;2.00;2.00;;;;;17.63;67.68;100755.84;6381225;22;45526;-91
2022/05/29 18:49:59;;;;;;;;;1.00;0.00;;;;;17.58;67.71;100757.53;6410800;22;47195;-91
2022/05/29 18:52:24;;;;;;;;;3.00;3.00;;;;;17.52;68.00;100740.63;6382397;22;45252;-92
2022/05/29 18:54:49;;;;;;;;;4.00;1.00;;;;;17.50;67.60;100739.72;6384821;22;45348;-91
2022/05/29 18:57:18;;;;;;;;;3.00;3.00;;;;;17.47;67.90;100731.72;6389355;22;45429;-92
2022/05/29 19:10:01;;;;;;;;;3.67;2.00;;;;;17.47;69.03;100691.91;6444580;22;46679;-89
2022/05/29 19:12:27;;;;;;;;;4.00;3.00;;;;;17.50;69.24;100681.34;6420598;22;44696;-90
2022/05/29 19:14:53;;;;;;;;;1.00;1.00;;;;;17.49;69.37;100668.97;6394163;22;44657;-94
2022/05/29 19:20:04;;;;;;;;;2.00;2.00;;;;;17.42;69.97;100640.56;6447219;22;45221;-91
2022/05/29 19:22:30;;;;;;;;;2.33;2.33;;;;;17.30;70.61;100574.94;6449976;22;45215;-91
2022/05/29 19:24:56;;;;;;;;;3.00;2.33;;;;;17.23;70.62;100581.00;6450287;22;45274;-90
2022/05/29 19:27:24;;;;;;;;;1.00;1.00;;;;;17.14;70.91;100550.78;6419969;22;44790;-91
2022/05/29 19:29:56;;;;;;;;;3.00;2.00;;;;;17.02;71.00;100554.16;6382552;22;47037;-92
2022/05/29 19:32:22;;;;;;;;;3.00;2.67;;;;;16.95;71.31;100545.22;6382278;22;44715;-92
2022/05/29 19:34:47;;;;;;;;;3.00;3.00;;;;;16.89;71.37;100533.63;6385420;22;44626;-94
2022/05/29 19:37:12;;;;;;;;;1.00;1.00;;;;;16.79;71.81;100516.69;6385893;22;44814;-93
2022/05/29 19:39:40;;;;;;;;;0.00;0.00;;;;;16.68;71.80;100497.94;6384949;22;46888;-92
2022/05/29 19:42:06;;;;;;;;;3.00;3.00;;;;;16.70;71.71;100502.41;6385277;22;45461;-91
2022/05/29 19:44:36;;;;;;;;;2.00;2.00;;;;;16.60;72.26;100481.94;6383461;22;45401;-93
2022/05/29 19:47:17;;;;;;;;;2.67;2.00;;;;;16.63;72.67;100474.94;6380745;22;44764;-91
2022/05/29 19:49:44;;;;;;;;;3.00;2.00;;;;;16.53;72.87;100459.75;6385948;22;46403;-94
2022/05/29 19:52:11;;;;;;;;;2.00;2.00;;;;;16.56;73.35;100443.00;6385964;22;45232;-94
2022/05/29 19:54:36;;;;;;;;;2.00;2.00;;;;;16.51;74.22;100396.16;6387518;22;44975;-92
2022/05/29 19:57:05;;;;;;;;;5.00;2.00;;;;;16.47;74.57;100378.41;6387083;22;45312;-92
2022/05/29 19:59:31;;;;;;;;;1.67;1.67;;;;;16.42;75.54;100325.38;6350451;22;47992;-94
